AAL3 KJFK-KLAX
Flight info
| Callsign | AAL3 |
|---|---|
| Flight time | 5h 17m |
| Altitude | 40000 |
| Route | COATE Q436 RAAKK DKK KP87O GRB CMARO GEP KP90G KP84A FOSIG IIP CKW BONGO ROCCY LAKRR HAKMN ANJLL4 |
| Aircraft | B772/H-SDE2E3FGHIJ5LORVWXY/LB1D1 |
Departure
| Time | 2026-05-08 13:18 |
|---|---|
| Airport | John F. Kennedy International Airport (KJFK) |
Arrival
| Time | 2026-05-08 18:36 |
|---|---|
| Airport | Los Angeles International Airport (KLAX) |
| Time | Latitude | Longitude | Altitude | Speed | Heading |
|---|---|---|---|---|---|
| 2026-05-08 12:33 | 40.64936 | -73.78983 | 28 ft | 0 kts | 199° |
| 2026-05-08 13:02 | 40.64938 | -73.78983 | 37 ft | 2 kts | 199° |
| 2026-05-08 13:02 | 40.64954 | -73.78976 | 27 ft | 2 kts | 199° |
| 2026-05-08 13:02 | 40.64969 | -73.78969 | 27 ft | 2 kts | 199° |
| 2026-05-08 13:02 | 40.64985 | -73.78962 | 26 ft | 2 kts | 199° |
| 2026-05-08 13:03 | 40.65000 | -73.78954 | 26 ft | 2 kts | 207° |
| 2026-05-08 13:03 | 40.65012 | -73.78940 | 26 ft | 2 kts | 254° |
| 2026-05-08 13:03 | 40.65014 | -73.78919 | 26 ft | 2 kts | 277° |
| 2026-05-08 13:03 | 40.65011 | -73.78898 | 27 ft | 2 kts | 290° |
| 2026-05-08 13:04 | 40.65004 | -73.78878 | 25 ft | 2 kts | 307° |
| 2026-05-08 13:04 | 40.64992 | -73.78865 | 26 ft | 2 kts | 347° |
| 2026-05-08 13:04 | 40.64978 | -73.78860 | 26 ft | 1 kts | 342° |
| 2026-05-08 13:04 | 40.64976 | -73.78859 | 27 ft | 0 kts | 342° |
| 2026-05-08 13:07 | 40.64981 | -73.78862 | 27 ft | 2 kts | 340° |
| 2026-05-08 13:07 | 40.65002 | -73.78877 | 25 ft | 4 kts | 324° |
| 2026-05-08 13:08 | 40.65022 | -73.78900 | 25 ft | 4 kts | 318° |
| 2026-05-08 13:08 | 40.65051 | -73.78912 | 28 ft | 5 kts | 354° |
| 2026-05-08 13:08 | 40.65088 | -73.78912 | 28 ft | 5 kts | 2° |
| 2026-05-08 13:08 | 40.65125 | -73.78912 | 28 ft | 6 kts | 347° |
| 2026-05-08 13:09 | 40.65148 | -73.78974 | 28 ft | 10 kts | 289° |
| 2026-05-08 13:09 | 40.65177 | -73.79090 | 28 ft | 16 kts | 287° |
| 2026-05-08 13:09 | 40.65210 | -73.79245 | 28 ft | 16 kts | 276° |
| 2026-05-08 13:09 | 40.65176 | -73.79379 | 28 ft | 17 kts | 241° |
| 2026-05-08 13:10 | 40.65117 | -73.79518 | 28 ft | 17 kts | 240° |
| 2026-05-08 13:10 | 40.65054 | -73.79654 | 27 ft | 17 kts | 228° |
| 2026-05-08 13:10 | 40.64942 | -73.79702 | 28 ft | 17 kts | 182° |
| 2026-05-08 13:10 | 40.64821 | -73.79704 | 28 ft | 17 kts | 175° |
| 2026-05-08 13:11 | 40.64715 | -73.79630 | 28 ft | 17 kts | 145° |
| 2026-05-08 13:11 | 40.64616 | -73.79539 | 28 ft | 17 kts | 149° |
| 2026-05-08 13:11 | 40.64506 | -73.79502 | 29 ft | 16 kts | 175° |
| 2026-05-08 13:11 | 40.64396 | -73.79490 | 29 ft | 16 kts | 176° |
| 2026-05-08 13:12 | 40.64283 | -73.79497 | 29 ft | 17 kts | 184° |
| 2026-05-08 13:12 | 40.64159 | -73.79507 | 29 ft | 18 kts | 184° |
| 2026-05-08 13:12 | 40.64055 | -73.79458 | 27 ft | 16 kts | 133° |
| 2026-05-08 13:12 | 40.63979 | -73.79299 | 31 ft | 26 kts | 120° |
| 2026-05-08 13:13 | 40.63888 | -73.79096 | 26 ft | 26 kts | 121° |
| 2026-05-08 13:13 | 40.63796 | -73.78893 | 30 ft | 26 kts | 121° |
| 2026-05-08 13:13 | 40.63704 | -73.78691 | 33 ft | 26 kts | 121° |
| 2026-05-08 13:13 | 40.63613 | -73.78488 | 34 ft | 26 kts | 121° |
| 2026-05-08 13:14 | 40.63521 | -73.78286 | 30 ft | 26 kts | 121° |
| 2026-05-08 13:14 | 40.63430 | -73.78084 | 29 ft | 24 kts | 120° |
| 2026-05-08 13:14 | 40.63356 | -73.77913 | 29 ft | 20 kts | 118° |
| 2026-05-08 13:14 | 40.63287 | -73.77759 | 32 ft | 20 kts | 121° |
| 2026-05-08 13:15 | 40.63217 | -73.77606 | 33 ft | 20 kts | 121° |
| 2026-05-08 13:15 | 40.63149 | -73.77454 | 34 ft | 20 kts | 121° |
| 2026-05-08 13:15 | 40.63080 | -73.77302 | 32 ft | 19 kts | 121° |
| 2026-05-08 13:15 | 40.63014 | -73.77156 | 30 ft | 18 kts | 120° |
| 2026-05-08 13:16 | 40.62979 | -73.77080 | 27 ft | 5 kts | 145° |
| 2026-05-08 13:16 | 40.62942 | -73.77093 | 28 ft | 7 kts | 207° |
| 2026-05-08 13:16 | 40.62898 | -73.77124 | 28 ft | 7 kts | 209° |
| 2026-05-08 13:16 | 40.62855 | -73.77157 | 28 ft | 7 kts | 211° |
| 2026-05-08 13:17 | 40.62817 | -73.77191 | 28 ft | 5 kts | 227° |
| 2026-05-08 13:17 | 40.62842 | -73.77268 | 29 ft | 22 kts | 301° |
| 2026-05-08 13:17 | 40.63023 | -73.77670 | 35 ft | 85 kts | 300° |
| 2026-05-08 13:17 | 40.63441 | -73.78591 | 30 ft | 147 kts | 301° |
| 2026-05-08 13:18 | 40.63994 | -73.79821 | 566 ft | 158 kts | 303° |
| 2026-05-08 13:18 | 40.64588 | -73.81087 | 1372 ft | 159 kts | 302° |
| 2026-05-08 13:18 | 40.65175 | -73.82334 | 2209 ft | 165 kts | 302° |
| 2026-05-08 13:18 | 40.65624 | -73.83811 | 2422 ft | 189 kts | 274° |
| 2026-05-08 13:19 | 40.65200 | -73.85560 | 2595 ft | 223 kts | 233° |
| 2026-05-08 13:19 | 40.63921 | -73.86907 | 2825 ft | 248 kts | 219° |
| 2026-05-08 13:19 | 40.62498 | -73.88267 | 3398 ft | 257 kts | 221° |
| 2026-05-08 13:19 | 40.61032 | -73.89641 | 4090 ft | 260 kts | 215° |
| 2026-05-08 13:20 | 40.59272 | -73.90381 | 4743 ft | 276 kts | 187° |
| 2026-05-08 13:20 | 40.57354 | -73.90003 | 5439 ft | 284 kts | 165° |
| 2026-05-08 13:20 | 40.55479 | -73.89081 | 6112 ft | 290 kts | 160° |
| 2026-05-08 13:20 | 40.53714 | -73.87770 | 6644 ft | 298 kts | 139° |
| 2026-05-08 13:21 | 40.52478 | -73.85581 | 7268 ft | 302 kts | 111° |
| 2026-05-08 13:21 | 40.52051 | -73.82911 | 7934 ft | 299 kts | 85° |
| 2026-05-08 13:21 | 40.52497 | -73.80287 | 8534 ft | 293 kts | 58° |
| 2026-05-08 13:21 | 40.53714 | -73.78217 | 9150 ft | 283 kts | 31° |
| 2026-05-08 13:22 | 40.55365 | -73.76885 | 9738 ft | 279 kts | 20° |
| 2026-05-08 13:22 | 40.57118 | -73.75771 | 10326 ft | 281 kts | 18° |
| 2026-05-08 13:22 | 40.58909 | -73.74673 | 10941 ft | 286 kts | 17° |
| 2026-05-08 13:22 | 40.60725 | -73.73562 | 11617 ft | 291 kts | 17° |
| 2026-05-08 13:23 | 40.62594 | -73.72625 | 12242 ft | 285 kts | 2° |
| 2026-05-08 13:23 | 40.64521 | -73.72741 | 12970 ft | 273 kts | 336° |
| 2026-05-08 13:23 | 40.66277 | -73.73673 | 13794 ft | 272 kts | 328° |
| 2026-05-08 13:23 | 40.67998 | -73.74797 | 14415 ft | 284 kts | 327° |
| 2026-05-08 13:24 | 40.69809 | -73.76031 | 14600 ft | 310 kts | 326° |
| 2026-05-08 13:24 | 40.71735 | -73.77509 | 14955 ft | 327 kts | 322° |
| 2026-05-08 13:24 | 40.73595 | -73.79275 | 15652 ft | 332 kts | 316° |
| 2026-05-08 13:24 | 40.75322 | -73.81372 | 16530 ft | 334 kts | 309° |
| 2026-05-08 13:25 | 40.76848 | -73.83673 | 17513 ft | 333 kts | 304° |
| 2026-05-08 13:25 | 40.78232 | -73.86125 | 18467 ft | 334 kts | 301° |
| 2026-05-08 13:25 | 40.79520 | -73.88682 | 19284 ft | 336 kts | 298° |
| 2026-05-08 13:25 | 40.80733 | -73.91275 | 20134 ft | 338 kts | 297° |
| 2026-05-08 13:26 | 40.81933 | -73.93957 | 20961 ft | 340 kts | 297° |
| 2026-05-08 13:26 | 40.83115 | -73.96674 | 21793 ft | 343 kts | 296° |
| 2026-05-08 13:26 | 40.84295 | -73.99428 | 22628 ft | 346 kts | 296° |
| 2026-05-08 13:26 | 40.85477 | -74.02209 | 23491 ft | 348 kts | 296° |
| 2026-05-08 13:27 | 40.86662 | -74.05010 | 24178 ft | 351 kts | 296° |
| 2026-05-08 13:27 | 40.87855 | -74.07833 | 24939 ft | 352 kts | 295° |
| 2026-05-08 13:27 | 40.89045 | -74.10654 | 25662 ft | 352 kts | 295° |
| 2026-05-08 13:27 | 40.90237 | -74.13486 | 26329 ft | 353 kts | 294° |
| 2026-05-08 13:28 | 40.91436 | -74.16336 | 26921 ft | 356 kts | 294° |
| 2026-05-08 13:28 | 40.92643 | -74.19211 | 27489 ft | 359 kts | 294° |
| 2026-05-08 13:28 | 40.93856 | -74.22101 | 28064 ft | 361 kts | 294° |
| 2026-05-08 13:28 | 40.95075 | -74.25007 | 28631 ft | 362 kts | 294° |
| 2026-05-08 13:29 | 40.96301 | -74.27931 | 29141 ft | 365 kts | 294° |
| 2026-05-08 13:29 | 40.97534 | -74.30876 | 29653 ft | 367 kts | 294° |
| 2026-05-08 13:29 | 40.98773 | -74.33835 | 30130 ft | 368 kts | 293° |
| 2026-05-08 13:29 | 41.00016 | -74.36810 | 30426 ft | 371 kts | 294° |
| 2026-05-08 13:30 | 41.01273 | -74.39821 | 30614 ft | 377 kts | 294° |
| 2026-05-08 13:30 | 41.02546 | -74.42874 | 30875 ft | 380 kts | 294° |
| 2026-05-08 13:30 | 41.03827 | -74.45949 | 31177 ft | 382 kts | 294° |
| 2026-05-08 13:30 | 41.05115 | -74.49039 | 31450 ft | 384 kts | 294° |
| 2026-05-08 13:31 | 41.06409 | -74.52153 | 31638 ft | 388 kts | 294° |
| 2026-05-08 13:31 | 41.07715 | -74.55295 | 31883 ft | 390 kts | 294° |
| 2026-05-08 13:31 | 41.09023 | -74.58444 | 32202 ft | 390 kts | 294° |
| 2026-05-08 13:31 | 41.10330 | -74.61596 | 32538 ft | 390 kts | 294° |
| 2026-05-08 13:32 | 41.11636 | -74.64746 | 32882 ft | 390 kts | 294° |
| 2026-05-08 13:32 | 41.12942 | -74.67902 | 33223 ft | 390 kts | 294° |
| 2026-05-08 13:32 | 41.14256 | -74.71056 | 33521 ft | 391 kts | 295° |
| 2026-05-08 13:32 | 41.15612 | -74.74194 | 33839 ft | 392 kts | 295° |
| 2026-05-08 13:33 | 41.16982 | -74.77319 | 34148 ft | 392 kts | 296° |
| 2026-05-08 13:33 | 41.18360 | -74.80453 | 34367 ft | 394 kts | 296° |
| 2026-05-08 13:33 | 41.19745 | -74.83613 | 34508 ft | 399 kts | 296° |
| 2026-05-08 13:33 | 41.21140 | -74.86811 | 34676 ft | 402 kts | 296° |
| 2026-05-08 13:34 | 41.22538 | -74.90019 | 34925 ft | 402 kts | 296° |
| 2026-05-08 13:34 | 41.23938 | -74.93240 | 35110 ft | 404 kts | 296° |
| 2026-05-08 13:34 | 41.25348 | -74.96493 | 35222 ft | 408 kts | 296° |
| 2026-05-08 13:34 | 41.26766 | -74.99768 | 35417 ft | 409 kts | 296° |
| 2026-05-08 13:35 | 41.28184 | -75.03046 | 35658 ft | 410 kts | 296° |
| 2026-05-08 13:35 | 41.29586 | -75.06289 | 35877 ft | 411 kts | 296° |
| 2026-05-08 13:35 | 41.31027 | -75.09628 | 36116 ft | 411 kts | 296° |
| 2026-05-08 13:35 | 41.32450 | -75.12928 | 36340 ft | 412 kts | 296° |
| 2026-05-08 13:36 | 41.33856 | -75.16193 | 36523 ft | 413 kts | 296° |
| 2026-05-08 13:36 | 41.35284 | -75.19513 | 36726 ft | 414 kts | 296° |
| 2026-05-08 13:36 | 41.36715 | -75.22842 | 36924 ft | 415 kts | 296° |
| 2026-05-08 13:36 | 41.38149 | -75.26184 | 37138 ft | 416 kts | 296° |
| 2026-05-08 13:37 | 41.39584 | -75.29530 | 37360 ft | 417 kts | 296° |
| 2026-05-08 13:37 | 41.41021 | -75.32886 | 37534 ft | 418 kts | 296° |
| 2026-05-08 13:37 | 41.42462 | -75.36255 | 37748 ft | 419 kts | 296° |
| 2026-05-08 13:37 | 41.43903 | -75.39627 | 37925 ft | 419 kts | 296° |
| 2026-05-08 13:38 | 41.45345 | -75.43004 | 38142 ft | 420 kts | 296° |
| 2026-05-08 13:38 | 41.46782 | -75.46396 | 38376 ft | 419 kts | 294° |
| 2026-05-08 13:38 | 41.48070 | -75.49874 | 38547 ft | 418 kts | 290° |
| 2026-05-08 13:38 | 41.49128 | -75.53475 | 38717 ft | 419 kts | 288° |
| 2026-05-08 13:39 | 41.51203 | -75.60788 | 38928 ft | 422 kts | 289° |
| 2026-05-08 13:39 | 41.52250 | -75.64443 | 39126 ft | 421 kts | 289° |
| 2026-05-08 13:39 | 41.53297 | -75.68096 | 39297 ft | 422 kts | 289° |
| 2026-05-08 13:40 | 41.55040 | -75.74176 | 39553 ft | 422 kts | 288° |
| 2026-05-08 13:40 | 41.56086 | -75.77837 | 39712 ft | 422 kts | 288° |
| 2026-05-08 13:40 | 41.57132 | -75.81498 | 39849 ft | 423 kts | 288° |
| 2026-05-08 13:41 | 41.59229 | -75.88868 | 39929 ft | 424 kts | 288° |
| 2026-05-08 13:41 | 41.61304 | -75.96236 | 39956 ft | 423 kts | 288° |
| 2026-05-08 13:42 | 41.63367 | -76.03582 | 39956 ft | 422 kts | 288° |
| 2026-05-08 13:42 | 41.65423 | -76.10919 | 39958 ft | 421 kts | 288° |
| 2026-05-08 13:43 | 41.67472 | -76.18249 | 39971 ft | 421 kts | 288° |
| 2026-05-08 13:43 | 41.69522 | -76.25582 | 39962 ft | 421 kts | 288° |
| 2026-05-08 13:44 | 41.71590 | -76.32910 | 39962 ft | 421 kts | 288° |
| 2026-05-08 13:44 | 41.73653 | -76.40241 | 39958 ft | 421 kts | 288° |
| 2026-05-08 13:45 | 41.75709 | -76.47576 | 39956 ft | 421 kts | 288° |
| 2026-05-08 13:45 | 41.77758 | -76.54919 | 39963 ft | 421 kts | 288° |
| 2026-05-08 13:46 | 41.79777 | -76.62224 | 39957 ft | 421 kts | 288° |
| 2026-05-08 13:46 | 41.81804 | -76.69584 | 39958 ft | 421 kts | 288° |
| 2026-05-08 13:47 | 41.83827 | -76.76947 | 39957 ft | 421 kts | 288° |
| 2026-05-08 13:47 | 41.85847 | -76.84318 | 39978 ft | 421 kts | 288° |
| 2026-05-08 13:48 | 41.87867 | -76.91707 | 39974 ft | 422 kts | 288° |
| 2026-05-08 13:48 | 41.89879 | -76.99116 | 39968 ft | 423 kts | 288° |
| 2026-05-08 13:49 | 41.91881 | -77.06542 | 39970 ft | 423 kts | 288° |
| 2026-05-08 13:49 | 41.93881 | -77.13978 | 39962 ft | 423 kts | 288° |
| 2026-05-08 13:50 | 41.95876 | -77.21417 | 39963 ft | 423 kts | 288° |
| 2026-05-08 13:50 | 41.97865 | -77.28855 | 39960 ft | 423 kts | 288° |
| 2026-05-08 13:51 | 41.99853 | -77.36305 | 39960 ft | 423 kts | 288° |
| 2026-05-08 13:51 | 42.01839 | -77.43746 | 39960 ft | 423 kts | 288° |
| 2026-05-08 13:52 | 42.03851 | -77.51126 | 39962 ft | 423 kts | 288° |
| 2026-05-08 13:52 | 42.05880 | -77.58565 | 39958 ft | 423 kts | 288° |
| 2026-05-08 13:53 | 42.07899 | -77.66001 | 39962 ft | 423 kts | 288° |
| 2026-05-08 13:53 | 42.09911 | -77.73448 | 39963 ft | 423 kts | 288° |
| 2026-05-08 13:54 | 42.11918 | -77.80901 | 39965 ft | 423 kts | 288° |
| 2026-05-08 13:54 | 42.13920 | -77.88363 | 39955 ft | 423 kts | 288° |
| 2026-05-08 13:55 | 42.15917 | -77.95823 | 39961 ft | 423 kts | 288° |
| 2026-05-08 13:56 | 42.18906 | -78.07033 | 39972 ft | 423 kts | 288° |
| 2026-05-08 13:56 | 42.20891 | -78.14508 | 39969 ft | 424 kts | 288° |
| 2026-05-08 13:57 | 42.22874 | -78.21995 | 39966 ft | 424 kts | 288° |
| 2026-05-08 13:57 | 42.24844 | -78.29489 | 39965 ft | 424 kts | 287° |
| 2026-05-08 13:58 | 42.26725 | -78.37026 | 39967 ft | 423 kts | 287° |
| 2026-05-08 13:58 | 42.28583 | -78.44573 | 39968 ft | 424 kts | 287° |
| 2026-05-08 13:59 | 42.30444 | -78.52119 | 39975 ft | 423 kts | 287° |
| 2026-05-08 13:59 | 42.32308 | -78.59667 | 39973 ft | 424 kts | 287° |
| 2026-05-08 14:00 | 42.34166 | -78.67224 | 39971 ft | 424 kts | 287° |
| 2026-05-08 14:00 | 42.36022 | -78.74789 | 39968 ft | 424 kts | 287° |
| 2026-05-08 14:01 | 42.37857 | -78.82299 | 39968 ft | 424 kts | 287° |
| 2026-05-08 14:01 | 42.39702 | -78.89865 | 39972 ft | 423 kts | 287° |
| 2026-05-08 14:02 | 42.41566 | -78.97421 | 39971 ft | 423 kts | 287° |
| 2026-05-08 14:02 | 42.43452 | -79.04968 | 39978 ft | 423 kts | 287° |
| 2026-05-08 14:03 | 42.45329 | -79.12521 | 39979 ft | 423 kts | 287° |
| 2026-05-08 14:03 | 42.47198 | -79.20078 | 39977 ft | 423 kts | 287° |
| 2026-05-08 14:04 | 42.49099 | -79.27625 | 39986 ft | 423 kts | 289° |
| 2026-05-08 14:04 | 42.51507 | -79.34910 | 39984 ft | 424 kts | 292° |
| 2026-05-08 14:05 | 42.53980 | -79.42171 | 39997 ft | 425 kts | 292° |
| 2026-05-08 14:05 | 42.56445 | -79.49462 | 39981 ft | 426 kts | 292° |
| 2026-05-08 14:06 | 42.58901 | -79.56770 | 39974 ft | 426 kts | 292° |
| 2026-05-08 14:06 | 42.61353 | -79.64090 | 39977 ft | 426 kts | 292° |
| 2026-05-08 14:07 | 42.63799 | -79.71418 | 39968 ft | 426 kts | 292° |
| 2026-05-08 14:07 | 42.66242 | -79.78755 | 39969 ft | 426 kts | 292° |
| 2026-05-08 14:08 | 42.68679 | -79.86094 | 39969 ft | 426 kts | 292° |
| 2026-05-08 14:08 | 42.71113 | -79.93442 | 39973 ft | 426 kts | 292° |
| 2026-05-08 14:09 | 42.73540 | -80.00789 | 39972 ft | 426 kts | 292° |
| 2026-05-08 14:09 | 42.75962 | -80.08142 | 39958 ft | 426 kts | 292° |
| 2026-05-08 14:10 | 42.78377 | -80.15495 | 39969 ft | 426 kts | 292° |
| 2026-05-08 14:10 | 42.80771 | -80.22801 | 39965 ft | 425 kts | 292° |
| 2026-05-08 14:11 | 42.83179 | -80.30169 | 39975 ft | 426 kts | 292° |
| 2026-05-08 14:11 | 42.85586 | -80.37557 | 39967 ft | 427 kts | 292° |
| 2026-05-08 14:12 | 42.87992 | -80.44963 | 39964 ft | 428 kts | 292° |
| 2026-05-08 14:12 | 42.90396 | -80.52383 | 39962 ft | 428 kts | 292° |
| 2026-05-08 14:13 | 42.92798 | -80.59814 | 39960 ft | 428 kts | 292° |
| 2026-05-08 14:13 | 42.95193 | -80.67247 | 39955 ft | 428 kts | 292° |
| 2026-05-08 14:14 | 42.97583 | -80.74684 | 39958 ft | 428 kts | 292° |
| 2026-05-08 14:14 | 42.99966 | -80.82121 | 39962 ft | 427 kts | 292° |
| 2026-05-08 14:15 | 43.02343 | -80.89560 | 39957 ft | 427 kts | 292° |
| 2026-05-08 14:15 | 43.04712 | -80.96994 | 39960 ft | 426 kts | 291° |
| 2026-05-08 14:16 | 43.07074 | -81.04426 | 39961 ft | 426 kts | 291° |
| 2026-05-08 14:16 | 43.09429 | -81.11859 | 39974 ft | 426 kts | 291° |
| 2026-05-08 14:17 | 43.11779 | -81.19298 | 39969 ft | 426 kts | 291° |
| 2026-05-08 14:17 | 43.14128 | -81.26753 | 39961 ft | 426 kts | 291° |
| 2026-05-08 14:18 | 43.16471 | -81.34208 | 39958 ft | 426 kts | 291° |
| 2026-05-08 14:18 | 43.18809 | -81.41670 | 39957 ft | 426 kts | 291° |
| 2026-05-08 14:19 | 43.21144 | -81.49145 | 39955 ft | 426 kts | 291° |
| 2026-05-08 14:19 | 43.23472 | -81.56618 | 39953 ft | 426 kts | 291° |
| 2026-05-08 14:20 | 43.25796 | -81.64101 | 39953 ft | 426 kts | 291° |
| 2026-05-08 14:20 | 43.28116 | -81.71588 | 39957 ft | 426 kts | 291° |
| 2026-05-08 14:21 | 43.30430 | -81.79081 | 39953 ft | 426 kts | 291° |
| 2026-05-08 14:21 | 43.32738 | -81.86575 | 39956 ft | 426 kts | 291° |
| 2026-05-08 14:22 | 43.35023 | -81.94016 | 39975 ft | 426 kts | 291° |
| 2026-05-08 14:22 | 43.37320 | -82.01519 | 39964 ft | 426 kts | 291° |
| 2026-05-08 14:23 | 43.39614 | -82.09032 | 39954 ft | 426 kts | 291° |
| 2026-05-08 14:23 | 43.41905 | -82.16557 | 39954 ft | 427 kts | 291° |
| 2026-05-08 14:24 | 43.44192 | -82.24092 | 39955 ft | 427 kts | 291° |
| 2026-05-08 14:24 | 43.46474 | -82.31629 | 39960 ft | 427 kts | 291° |
| 2026-05-08 14:25 | 43.48751 | -82.39176 | 39960 ft | 427 kts | 291° |
| 2026-05-08 14:25 | 43.51025 | -82.46732 | 39948 ft | 427 kts | 291° |
| 2026-05-08 14:26 | 43.53293 | -82.54291 | 39948 ft | 427 kts | 291° |
| 2026-05-08 14:26 | 43.55558 | -82.61863 | 39933 ft | 427 kts | 291° |
| 2026-05-08 14:27 | 43.57816 | -82.69435 | 39936 ft | 427 kts | 290° |
| 2026-05-08 14:27 | 43.60069 | -82.77013 | 39944 ft | 427 kts | 290° |
| 2026-05-08 14:28 | 43.62320 | -82.84604 | 39941 ft | 428 kts | 290° |
| 2026-05-08 14:28 | 43.64568 | -82.92210 | 39940 ft | 428 kts | 290° |
| 2026-05-08 14:29 | 43.66434 | -82.98538 | 39944 ft | 428 kts | 290° |
| 2026-05-08 14:29 | 43.68674 | -83.06159 | 39943 ft | 428 kts | 290° |
| 2026-05-08 14:30 | 43.71275 | -83.15035 | 39940 ft | 429 kts | 290° |
| 2026-05-08 14:30 | 43.73505 | -83.22669 | 39942 ft | 428 kts | 290° |
| 2026-05-08 14:31 | 43.75370 | -83.29074 | 39940 ft | 428 kts | 290° |
| 2026-05-08 14:31 | 43.77590 | -83.36716 | 39937 ft | 428 kts | 290° |
| 2026-05-08 14:32 | 43.80895 | -83.48140 | 39936 ft | 428 kts | 290° |
| 2026-05-08 14:32 | 43.83099 | -83.55788 | 39931 ft | 427 kts | 290° |
| 2026-05-08 14:33 | 43.85295 | -83.63429 | 39961 ft | 427 kts | 290° |
| 2026-05-08 14:33 | 43.87489 | -83.71088 | 39944 ft | 427 kts | 290° |
| 2026-05-08 14:34 | 43.89678 | -83.78752 | 39942 ft | 428 kts | 290° |
| 2026-05-08 14:34 | 43.91862 | -83.86422 | 39934 ft | 428 kts | 290° |
| 2026-05-08 14:35 | 43.94042 | -83.94101 | 39927 ft | 428 kts | 290° |
| 2026-05-08 14:35 | 43.96215 | -84.01782 | 39935 ft | 427 kts | 290° |
| 2026-05-08 14:36 | 43.98383 | -84.09467 | 39933 ft | 427 kts | 290° |
| 2026-05-08 14:36 | 44.00546 | -84.17159 | 39930 ft | 427 kts | 290° |
| 2026-05-08 14:37 | 44.02703 | -84.24852 | 39926 ft | 427 kts | 289° |
| 2026-05-08 14:37 | 44.04855 | -84.32552 | 39929 ft | 427 kts | 289° |
| 2026-05-08 14:38 | 44.07002 | -84.40259 | 39924 ft | 427 kts | 289° |
| 2026-05-08 14:38 | 44.09142 | -84.47965 | 39925 ft | 427 kts | 289° |
| 2026-05-08 14:39 | 44.11280 | -84.55688 | 39928 ft | 428 kts | 289° |
| 2026-05-08 14:39 | 44.13413 | -84.63414 | 39920 ft | 428 kts | 289° |
| 2026-05-08 14:40 | 44.15541 | -84.71152 | 39920 ft | 428 kts | 289° |
| 2026-05-08 14:40 | 44.17665 | -84.78895 | 39916 ft | 428 kts | 289° |
| 2026-05-08 14:41 | 44.19783 | -84.86646 | 39910 ft | 428 kts | 289° |
| 2026-05-08 14:41 | 44.21883 | -84.94350 | 39915 ft | 428 kts | 289° |
| 2026-05-08 14:42 | 44.23991 | -85.02113 | 39904 ft | 428 kts | 289° |
| 2026-05-08 14:42 | 44.26097 | -85.09891 | 39907 ft | 428 kts | 289° |
| 2026-05-08 14:43 | 44.28197 | -85.17672 | 39901 ft | 429 kts | 289° |
| 2026-05-08 14:43 | 44.30293 | -85.25462 | 39901 ft | 429 kts | 289° |
| 2026-05-08 14:44 | 44.32383 | -85.33258 | 39899 ft | 429 kts | 289° |
| 2026-05-08 14:44 | 44.34471 | -85.41071 | 39908 ft | 430 kts | 289° |
| 2026-05-08 14:45 | 44.36556 | -85.48898 | 39895 ft | 430 kts | 289° |
| 2026-05-08 14:45 | 44.38638 | -85.56740 | 39897 ft | 431 kts | 289° |
| 2026-05-08 14:46 | 44.40718 | -85.64601 | 39891 ft | 431 kts | 288° |
| 2026-05-08 14:46 | 44.42794 | -85.72473 | 39891 ft | 432 kts | 288° |
| 2026-05-08 14:47 | 44.44865 | -85.80350 | 39899 ft | 432 kts | 288° |
| 2026-05-08 14:47 | 44.46932 | -85.88235 | 39903 ft | 432 kts | 288° |
| 2026-05-08 14:48 | 44.48924 | -85.96166 | 39902 ft | 431 kts | 284° |
| 2026-05-08 14:48 | 44.50095 | -86.04365 | 39908 ft | 430 kts | 277° |
| 2026-05-08 14:49 | 44.50481 | -86.12657 | 39910 ft | 429 kts | 273° |
| 2026-05-08 14:49 | 44.50727 | -86.21012 | 39898 ft | 430 kts | 272° |
| 2026-05-08 14:50 | 44.50978 | -86.29374 | 39905 ft | 430 kts | 272° |
| 2026-05-08 14:50 | 44.51237 | -86.37736 | 39913 ft | 430 kts | 273° |
| 2026-05-08 14:51 | 44.51496 | -86.46104 | 39913 ft | 430 kts | 272° |
| 2026-05-08 14:51 | 44.51751 | -86.54477 | 39910 ft | 430 kts | 272° |
| 2026-05-08 14:52 | 44.52120 | -86.67044 | 39908 ft | 431 kts | 272° |
| 2026-05-08 14:53 | 44.52359 | -86.75433 | 39907 ft | 431 kts | 272° |
| 2026-05-08 14:53 | 44.52592 | -86.83830 | 39904 ft | 431 kts | 272° |
| 2026-05-08 14:54 | 44.52819 | -86.92231 | 39902 ft | 431 kts | 272° |
| 2026-05-08 14:54 | 44.53039 | -87.00630 | 39892 ft | 431 kts | 272° |
| 2026-05-08 14:55 | 44.53254 | -87.09035 | 39897 ft | 431 kts | 272° |
| 2026-05-08 14:55 | 44.53462 | -87.17438 | 39893 ft | 432 kts | 272° |
| 2026-05-08 14:56 | 44.53664 | -87.25845 | 39894 ft | 432 kts | 272° |
| 2026-05-08 14:56 | 44.53860 | -87.34250 | 39891 ft | 432 kts | 272° |
| 2026-05-08 14:57 | 44.54050 | -87.42665 | 39890 ft | 432 kts | 272° |
| 2026-05-08 14:57 | 44.54234 | -87.51078 | 39889 ft | 432 kts | 272° |
| 2026-05-08 14:58 | 44.54412 | -87.59493 | 39884 ft | 432 kts | 272° |
| 2026-05-08 14:58 | 44.54582 | -87.67862 | 39884 ft | 432 kts | 272° |
| 2026-05-08 14:59 | 44.54749 | -87.76343 | 39879 ft | 432 kts | 272° |
| 2026-05-08 14:59 | 44.54984 | -87.88918 | 39883 ft | 432 kts | 272° |
| 2026-05-08 15:00 | 44.55134 | -87.97340 | 39879 ft | 432 kts | 272° |
| 2026-05-08 15:00 | 44.55279 | -88.05761 | 39885 ft | 432 kts | 272° |
| 2026-05-08 15:01 | 44.55417 | -88.14177 | 39875 ft | 432 kts | 271° |
| 2026-05-08 15:01 | 44.55987 | -88.22544 | 39889 ft | 432 kts | 280° |
| 2026-05-08 15:02 | 44.57337 | -88.30746 | 39888 ft | 432 kts | 282° |
| 2026-05-08 15:02 | 44.58721 | -88.38946 | 39883 ft | 432 kts | 282° |
| 2026-05-08 15:03 | 44.60087 | -88.47164 | 39879 ft | 433 kts | 282° |
| 2026-05-08 15:03 | 44.61442 | -88.55397 | 39891 ft | 433 kts | 282° |
| 2026-05-08 15:04 | 44.62790 | -88.63647 | 39881 ft | 434 kts | 282° |
| 2026-05-08 15:04 | 44.64135 | -88.71918 | 39880 ft | 435 kts | 282° |
| 2026-05-08 15:05 | 44.65474 | -88.80192 | 39880 ft | 435 kts | 282° |
| 2026-05-08 15:05 | 44.66809 | -88.88478 | 39871 ft | 435 kts | 282° |
| 2026-05-08 15:06 | 44.68137 | -88.96763 | 39878 ft | 435 kts | 282° |
| 2026-05-08 15:06 | 44.69458 | -89.05049 | 39878 ft | 435 kts | 282° |
| 2026-05-08 15:07 | 44.70774 | -89.13342 | 39878 ft | 434 kts | 282° |
| 2026-05-08 15:07 | 44.72084 | -89.21636 | 39876 ft | 434 kts | 282° |
| 2026-05-08 15:08 | 44.73167 | -89.28530 | 39873 ft | 435 kts | 282° |
| 2026-05-08 15:08 | 44.74685 | -89.38236 | 39867 ft | 435 kts | 282° |
| 2026-05-08 15:09 | 44.75978 | -89.46549 | 39863 ft | 435 kts | 282° |
| 2026-05-08 15:09 | 44.77265 | -89.54870 | 39861 ft | 435 kts | 282° |
| 2026-05-08 15:10 | 44.78546 | -89.63192 | 39860 ft | 435 kts | 282° |
| 2026-05-08 15:10 | 44.79822 | -89.71524 | 39862 ft | 435 kts | 282° |
| 2026-05-08 15:11 | 44.81092 | -89.79865 | 39862 ft | 435 kts | 281° |
| 2026-05-08 15:11 | 44.82347 | -89.88145 | 39862 ft | 435 kts | 281° |
| 2026-05-08 15:12 | 44.83605 | -89.96490 | 39870 ft | 435 kts | 281° |
| 2026-05-08 15:12 | 44.84856 | -90.04829 | 39857 ft | 435 kts | 281° |
| 2026-05-08 15:13 | 44.86101 | -90.13177 | 39868 ft | 435 kts | 281° |
| 2026-05-08 15:13 | 44.87339 | -90.21528 | 39862 ft | 435 kts | 281° |
| 2026-05-08 15:14 | 44.88573 | -90.29888 | 39863 ft | 435 kts | 281° |
| 2026-05-08 15:14 | 44.89800 | -90.38247 | 39860 ft | 435 kts | 281° |
| 2026-05-08 15:15 | 44.91022 | -90.46613 | 39863 ft | 436 kts | 281° |
| 2026-05-08 15:15 | 44.92238 | -90.54991 | 39866 ft | 436 kts | 281° |
| 2026-05-08 15:16 | 44.93449 | -90.63369 | 39866 ft | 436 kts | 281° |
| 2026-05-08 15:16 | 44.94553 | -90.71784 | 39865 ft | 436 kts | 277° |
| 2026-05-08 15:17 | 44.95292 | -90.80276 | 39861 ft | 436 kts | 277° |
| 2026-05-08 15:17 | 44.96004 | -90.88781 | 39864 ft | 436 kts | 277° |
| 2026-05-08 15:18 | 44.96721 | -90.97293 | 39862 ft | 437 kts | 277° |
| 2026-05-08 15:18 | 44.97320 | -91.04371 | 39865 ft | 437 kts | 277° |
| 2026-05-08 15:19 | 44.98038 | -91.12900 | 39860 ft | 437 kts | 277° |
| 2026-05-08 15:19 | 44.98750 | -91.21424 | 39856 ft | 437 kts | 277° |
| 2026-05-08 15:20 | 44.99456 | -91.29963 | 39867 ft | 438 kts | 277° |
| 2026-05-08 15:20 | 45.00157 | -91.38522 | 39859 ft | 439 kts | 277° |
| 2026-05-08 15:21 | 45.00853 | -91.47094 | 39861 ft | 439 kts | 277° |
| 2026-05-08 15:21 | 45.01543 | -91.55681 | 39847 ft | 440 kts | 277° |
| 2026-05-08 15:22 | 45.02222 | -91.64209 | 39859 ft | 440 kts | 277° |
| 2026-05-08 15:22 | 45.02899 | -91.72797 | 39860 ft | 440 kts | 277° |
| 2026-05-08 15:23 | 45.03570 | -91.81394 | 39861 ft | 440 kts | 277° |
| 2026-05-08 15:23 | 45.04235 | -91.89995 | 39861 ft | 440 kts | 276° |
| 2026-05-08 15:24 | 45.04893 | -91.98594 | 39861 ft | 440 kts | 277° |
| 2026-05-08 15:24 | 45.05545 | -92.07201 | 39857 ft | 440 kts | 276° |
| 2026-05-08 15:25 | 45.06191 | -92.15812 | 39856 ft | 440 kts | 276° |
| 2026-05-08 15:25 | 45.06831 | -92.24433 | 39853 ft | 441 kts | 276° |
| 2026-05-08 15:26 | 45.07464 | -92.33052 | 39840 ft | 441 kts | 276° |
| 2026-05-08 15:26 | 45.08091 | -92.41671 | 39838 ft | 441 kts | 276° |
| 2026-05-08 15:27 | 45.08711 | -92.50296 | 39846 ft | 441 kts | 276° |
| 2026-05-08 15:27 | 45.09325 | -92.58925 | 39844 ft | 441 kts | 276° |
| 2026-05-08 15:28 | 45.09934 | -92.67566 | 39844 ft | 441 kts | 276° |
| 2026-05-08 15:28 | 45.10535 | -92.76203 | 39841 ft | 441 kts | 276° |
| 2026-05-08 15:29 | 45.11127 | -92.84800 | 39843 ft | 442 kts | 276° |
| 2026-05-08 15:29 | 45.11716 | -92.93456 | 39842 ft | 442 kts | 276° |
| 2026-05-08 15:30 | 45.12300 | -93.02126 | 39841 ft | 442 kts | 276° |
| 2026-05-08 15:30 | 45.12877 | -93.10793 | 39831 ft | 442 kts | 276° |
| 2026-05-08 15:31 | 45.13447 | -93.19456 | 39850 ft | 442 kts | 276° |
| 2026-05-08 15:31 | 45.14012 | -93.28130 | 39847 ft | 442 kts | 276° |
| 2026-05-08 15:32 | 45.13985 | -93.36841 | 39833 ft | 444 kts | 265° |
| 2026-05-08 15:32 | 45.12796 | -93.45444 | 39817 ft | 448 kts | 255° |
| 2026-05-08 15:33 | 45.10845 | -93.53834 | 39834 ft | 449 kts | 254° |
| 2026-05-08 15:33 | 45.08851 | -93.62210 | 39837 ft | 449 kts | 254° |
| 2026-05-08 15:34 | 45.06887 | -93.70595 | 39830 ft | 449 kts | 255° |
| 2026-05-08 15:34 | 45.04933 | -93.78975 | 39822 ft | 449 kts | 255° |
| 2026-05-08 15:35 | 45.02975 | -93.87350 | 39829 ft | 449 kts | 255° |
| 2026-05-08 15:35 | 45.01008 | -93.95723 | 39825 ft | 449 kts | 254° |
| 2026-05-08 15:36 | 44.99356 | -94.04195 | 39835 ft | 446 kts | 261° |
| 2026-05-08 15:36 | 44.98188 | -94.12798 | 39844 ft | 446 kts | 261° |
| 2026-05-08 15:37 | 44.97011 | -94.21405 | 39822 ft | 447 kts | 261° |
| 2026-05-08 15:37 | 44.95813 | -94.30008 | 39836 ft | 446 kts | 261° |
| 2026-05-08 15:38 | 44.94601 | -94.38605 | 39842 ft | 447 kts | 261° |
| 2026-05-08 15:38 | 44.93380 | -94.47204 | 39841 ft | 447 kts | 261° |
| 2026-05-08 15:39 | 44.92151 | -94.55806 | 39839 ft | 447 kts | 261° |
| 2026-05-08 15:39 | 44.90916 | -94.64406 | 39835 ft | 448 kts | 261° |
| 2026-05-08 15:40 | 44.89674 | -94.73012 | 39827 ft | 448 kts | 261° |
| 2026-05-08 15:40 | 44.88434 | -94.81551 | 39830 ft | 447 kts | 261° |
| 2026-05-08 15:41 | 44.87181 | -94.90132 | 39833 ft | 447 kts | 261° |
| 2026-05-08 15:41 | 44.85922 | -94.98706 | 39816 ft | 447 kts | 261° |
| 2026-05-08 15:42 | 44.84656 | -95.07279 | 39822 ft | 447 kts | 261° |
| 2026-05-08 15:42 | 44.83384 | -95.15849 | 39822 ft | 447 kts | 261° |
| 2026-05-08 15:43 | 44.82103 | -95.24430 | 39826 ft | 448 kts | 261° |
| 2026-05-08 15:43 | 44.80815 | -95.33011 | 39837 ft | 448 kts | 261° |
| 2026-05-08 15:44 | 44.79521 | -95.41590 | 39822 ft | 448 kts | 261° |
| 2026-05-08 15:44 | 44.78220 | -95.50164 | 39833 ft | 448 kts | 261° |
| 2026-05-08 15:45 | 44.76911 | -95.58743 | 39837 ft | 448 kts | 261° |
| 2026-05-08 15:45 | 44.75597 | -95.67317 | 39839 ft | 448 kts | 260° |
| 2026-05-08 15:46 | 44.74275 | -95.75891 | 39830 ft | 449 kts | 261° |
| 2026-05-08 15:46 | 44.72945 | -95.84475 | 39847 ft | 449 kts | 261° |
| 2026-05-08 15:47 | 44.71608 | -95.93056 | 39849 ft | 450 kts | 260° |
| 2026-05-08 15:47 | 44.70262 | -96.01645 | 39838 ft | 450 kts | 260° |
| 2026-05-08 15:48 | 44.68230 | -96.14533 | 39829 ft | 450 kts | 260° |
| 2026-05-08 15:49 | 44.66878 | -96.23053 | 39833 ft | 450 kts | 260° |
| 2026-05-08 15:49 | 44.65510 | -96.31630 | 39834 ft | 450 kts | 260° |
| 2026-05-08 15:50 | 44.64135 | -96.40206 | 39838 ft | 450 kts | 260° |
| 2026-05-08 15:50 | 44.62754 | -96.48780 | 39833 ft | 450 kts | 260° |
| 2026-05-08 15:51 | 44.61365 | -96.57352 | 39864 ft | 450 kts | 260° |
| 2026-05-08 15:51 | 44.59970 | -96.65919 | 39864 ft | 451 kts | 260° |
| 2026-05-08 15:52 | 44.58568 | -96.74492 | 39860 ft | 451 kts | 260° |
| 2026-05-08 15:52 | 44.57157 | -96.83067 | 39859 ft | 451 kts | 260° |
| 2026-05-08 15:53 | 44.55739 | -96.91650 | 39858 ft | 451 kts | 260° |
| 2026-05-08 15:53 | 44.54315 | -97.00218 | 39865 ft | 451 kts | 260° |
| 2026-05-08 15:54 | 44.52885 | -97.08789 | 39859 ft | 452 kts | 260° |
| 2026-05-08 15:54 | 44.51447 | -97.17361 | 39856 ft | 452 kts | 260° |
| 2026-05-08 15:55 | 44.50002 | -97.25929 | 39863 ft | 452 kts | 260° |
| 2026-05-08 15:55 | 44.47822 | -97.38774 | 39856 ft | 452 kts | 260° |
| 2026-05-08 15:56 | 44.46362 | -97.47331 | 39861 ft | 452 kts | 260° |
| 2026-05-08 15:56 | 44.44895 | -97.55884 | 39856 ft | 452 kts | 260° |
| 2026-05-08 15:57 | 44.43423 | -97.64426 | 39850 ft | 452 kts | 260° |
| 2026-05-08 15:57 | 44.41942 | -97.72975 | 39861 ft | 452 kts | 260° |
| 2026-05-08 15:58 | 44.40455 | -97.81521 | 39855 ft | 452 kts | 260° |
| 2026-05-08 15:58 | 44.38971 | -97.90010 | 39847 ft | 453 kts | 259° |
| 2026-05-08 15:59 | 44.37469 | -97.98559 | 39833 ft | 453 kts | 260° |
| 2026-05-08 15:59 | 44.35959 | -98.07112 | 39841 ft | 453 kts | 260° |
| 2026-05-08 16:00 | 44.34445 | -98.15654 | 39845 ft | 453 kts | 260° |
| 2026-05-08 16:00 | 44.32919 | -98.24212 | 39842 ft | 454 kts | 259° |
| 2026-05-08 16:01 | 44.31389 | -98.32762 | 39824 ft | 454 kts | 259° |
| 2026-05-08 16:01 | 44.29853 | -98.41299 | 39823 ft | 453 kts | 259° |
| 2026-05-08 16:02 | 44.28311 | -98.49834 | 39834 ft | 453 kts | 259° |
| 2026-05-08 16:02 | 44.26763 | -98.58361 | 39834 ft | 453 kts | 259° |
| 2026-05-08 16:03 | 44.25208 | -98.66887 | 39837 ft | 453 kts | 259° |
| 2026-05-08 16:03 | 44.23647 | -98.75404 | 39823 ft | 453 kts | 259° |
| 2026-05-08 16:04 | 44.22080 | -98.83918 | 39837 ft | 453 kts | 259° |
| 2026-05-08 16:04 | 44.20506 | -98.92429 | 39839 ft | 454 kts | 259° |
| 2026-05-08 16:05 | 44.18923 | -99.00952 | 39863 ft | 454 kts | 259° |
| 2026-05-08 16:05 | 44.17334 | -99.09470 | 39834 ft | 454 kts | 259° |
| 2026-05-08 16:06 | 44.16008 | -99.16544 | 39851 ft | 454 kts | 259° |
| 2026-05-08 16:06 | 44.14134 | -99.26503 | 39854 ft | 455 kts | 259° |
| 2026-05-08 16:07 | 44.12535 | -99.34961 | 39861 ft | 455 kts | 259° |
| 2026-05-08 16:07 | 44.10916 | -99.43480 | 39864 ft | 455 kts | 259° |
| 2026-05-08 16:08 | 44.09293 | -99.51989 | 39856 ft | 455 kts | 259° |
| 2026-05-08 16:08 | 44.07660 | -99.60509 | 39863 ft | 456 kts | 259° |
| 2026-05-08 16:09 | 44.06286 | -99.67652 | 39868 ft | 457 kts | 259° |
| 2026-05-08 16:09 | 44.04637 | -99.76187 | 39868 ft | 457 kts | 259° |
| 2026-05-08 16:10 | 44.02981 | -99.84723 | 39843 ft | 458 kts | 259° |
| 2026-05-08 16:10 | 44.01320 | -99.93254 | 39862 ft | 458 kts | 259° |
| 2026-05-08 16:11 | 43.99735 | -100.01805 | 39872 ft | 455 kts | 264° |
| 2026-05-08 16:11 | 43.98684 | -100.10393 | 39872 ft | 454 kts | 265° |
| 2026-05-08 16:12 | 43.97651 | -100.19055 | 39878 ft | 455 kts | 265° |
| 2026-05-08 16:12 | 43.96595 | -100.27709 | 39868 ft | 455 kts | 265° |
| 2026-05-08 16:13 | 43.95521 | -100.36368 | 39881 ft | 455 kts | 265° |
| 2026-05-08 16:13 | 43.94437 | -100.45021 | 39875 ft | 456 kts | 265° |
| 2026-05-08 16:14 | 43.93347 | -100.53682 | 39864 ft | 456 kts | 264° |
| 2026-05-08 16:14 | 43.92249 | -100.62337 | 39869 ft | 455 kts | 265° |
| 2026-05-08 16:15 | 43.91145 | -100.70979 | 39877 ft | 455 kts | 265° |
| 2026-05-08 16:15 | 43.90036 | -100.79622 | 39887 ft | 455 kts | 265° |
| 2026-05-08 16:16 | 43.88919 | -100.88272 | 39882 ft | 456 kts | 265° |
| 2026-05-08 16:16 | 43.87796 | -100.96919 | 39885 ft | 456 kts | 265° |
| 2026-05-08 16:17 | 43.86666 | -101.05559 | 39888 ft | 456 kts | 264° |
| 2026-05-08 16:17 | 43.85529 | -101.14199 | 39890 ft | 456 kts | 264° |
| 2026-05-08 16:18 | 43.84387 | -101.22835 | 39892 ft | 456 kts | 264° |
| 2026-05-08 16:18 | 43.83239 | -101.31465 | 39895 ft | 456 kts | 264° |
| 2026-05-08 16:19 | 43.82069 | -101.40039 | 39891 ft | 457 kts | 262° |
| 2026-05-08 16:19 | 43.80118 | -101.48530 | 39899 ft | 463 kts | 254° |
| 2026-05-08 16:20 | 43.77754 | -101.56825 | 39904 ft | 463 kts | 254° |
| 2026-05-08 16:20 | 43.75393 | -101.65119 | 39908 ft | 463 kts | 254° |
| 2026-05-08 16:21 | 43.73063 | -101.73359 | 39900 ft | 463 kts | 255° |
| 2026-05-08 16:21 | 43.70724 | -101.81648 | 39909 ft | 463 kts | 255° |
| 2026-05-08 16:22 | 43.68379 | -101.89933 | 39913 ft | 463 kts | 255° |
| 2026-05-08 16:22 | 43.66024 | -101.98226 | 39912 ft | 464 kts | 255° |
| 2026-05-08 16:23 | 43.63662 | -102.06513 | 39900 ft | 464 kts | 255° |
| 2026-05-08 16:23 | 43.61293 | -102.14791 | 39917 ft | 464 kts | 255° |
| 2026-05-08 16:24 | 43.58920 | -102.23063 | 39925 ft | 464 kts | 255° |
| 2026-05-08 16:24 | 43.56538 | -102.31337 | 39926 ft | 464 kts | 255° |
| 2026-05-08 16:25 | 43.54149 | -102.39605 | 39919 ft | 464 kts | 255° |
| 2026-05-08 16:25 | 43.51753 | -102.47864 | 39921 ft | 464 kts | 255° |
| 2026-05-08 16:26 | 43.49356 | -102.56116 | 39928 ft | 464 kts | 255° |
| 2026-05-08 16:26 | 43.46949 | -102.64369 | 39932 ft | 465 kts | 255° |
| 2026-05-08 16:27 | 43.44533 | -102.72623 | 39932 ft | 465 kts | 255° |
| 2026-05-08 16:27 | 43.42110 | -102.80873 | 39941 ft | 465 kts | 255° |
| 2026-05-08 16:28 | 43.39682 | -102.89118 | 39940 ft | 465 kts | 255° |
| 2026-05-08 16:28 | 43.37265 | -102.97297 | 39952 ft | 465 kts | 255° |
| 2026-05-08 16:29 | 43.34822 | -103.05537 | 39947 ft | 466 kts | 255° |
| 2026-05-08 16:29 | 43.32373 | -103.13770 | 39923 ft | 465 kts | 256° |
| 2026-05-08 16:30 | 43.29921 | -103.21987 | 39961 ft | 464 kts | 256° |
| 2026-05-08 16:30 | 43.27470 | -103.30173 | 39966 ft | 464 kts | 256° |
| 2026-05-08 16:31 | 43.25010 | -103.38364 | 39977 ft | 464 kts | 256° |
| 2026-05-08 16:31 | 43.22548 | -103.46539 | 39959 ft | 464 kts | 255° |
| 2026-05-08 16:32 | 43.20078 | -103.54708 | 39966 ft | 463 kts | 256° |
| 2026-05-08 16:32 | 43.17604 | -103.62871 | 39965 ft | 464 kts | 256° |
| 2026-05-08 16:33 | 43.15125 | -103.71021 | 39969 ft | 464 kts | 256° |
| 2026-05-08 16:33 | 43.12640 | -103.79170 | 39989 ft | 464 kts | 256° |
| 2026-05-08 16:34 | 43.10148 | -103.87309 | 39953 ft | 463 kts | 256° |
| 2026-05-08 16:34 | 43.07655 | -103.95427 | 39982 ft | 462 kts | 256° |
| 2026-05-08 16:35 | 43.05163 | -104.03522 | 39993 ft | 462 kts | 256° |
| 2026-05-08 16:35 | 43.02661 | -104.11620 | 39998 ft | 462 kts | 256° |
| 2026-05-08 16:36 | 43.00157 | -104.19704 | 40001 ft | 462 kts | 256° |
| 2026-05-08 16:36 | 42.97647 | -104.27780 | 39998 ft | 461 kts | 256° |
| 2026-05-08 16:37 | 42.95135 | -104.35835 | 40002 ft | 461 kts | 256° |
| 2026-05-08 16:37 | 42.92615 | -104.43894 | 40004 ft | 462 kts | 256° |
| 2026-05-08 16:38 | 42.90088 | -104.51952 | 40001 ft | 462 kts | 256° |
| 2026-05-08 16:38 | 42.87570 | -104.59954 | 40003 ft | 462 kts | 256° |
| 2026-05-08 16:39 | 42.85030 | -104.68003 | 40003 ft | 463 kts | 256° |
| 2026-05-08 16:39 | 42.82482 | -104.76049 | 40006 ft | 462 kts | 256° |
| 2026-05-08 16:40 | 42.79931 | -104.84086 | 40004 ft | 462 kts | 255° |
| 2026-05-08 16:40 | 42.77375 | -104.92114 | 40002 ft | 462 kts | 255° |
| 2026-05-08 16:41 | 42.74819 | -105.00117 | 40027 ft | 460 kts | 255° |
| 2026-05-08 16:42 | 42.70975 | -105.12110 | 40057 ft | 462 kts | 255° |
| 2026-05-08 16:42 | 42.68397 | -105.20126 | 40067 ft | 463 kts | 255° |
| 2026-05-08 16:43 | 42.65617 | -105.28064 | 40064 ft | 467 kts | 251° |
| 2026-05-08 16:43 | 42.62638 | -105.35914 | 40058 ft | 467 kts | 251° |
| 2026-05-08 16:44 | 42.59650 | -105.43747 | 40049 ft | 467 kts | 251° |
| 2026-05-08 16:44 | 42.56672 | -105.51592 | 40035 ft | 467 kts | 251° |
| 2026-05-08 16:45 | 42.53701 | -105.59424 | 40032 ft | 467 kts | 251° |
| 2026-05-08 16:45 | 42.50725 | -105.67258 | 39996 ft | 467 kts | 251° |
| 2026-05-08 16:46 | 42.47750 | -105.75068 | 40002 ft | 466 kts | 251° |
| 2026-05-08 16:46 | 42.44774 | -105.82855 | 40022 ft | 465 kts | 251° |
| 2026-05-08 16:47 | 42.41793 | -105.90634 | 40015 ft | 466 kts | 250° |
| 2026-05-08 16:47 | 42.38805 | -105.98410 | 40023 ft | 465 kts | 250° |
| 2026-05-08 16:48 | 42.35818 | -106.06159 | 40015 ft | 465 kts | 250° |
| 2026-05-08 16:48 | 42.32826 | -106.13908 | 40022 ft | 465 kts | 250° |
| 2026-05-08 16:49 | 42.29824 | -106.21658 | 40022 ft | 466 kts | 250° |
| 2026-05-08 16:49 | 42.26817 | -106.29402 | 40022 ft | 466 kts | 250° |
| 2026-05-08 16:50 | 42.23802 | -106.37142 | 39993 ft | 466 kts | 250° |
| 2026-05-08 16:50 | 42.20784 | -106.44869 | 40016 ft | 465 kts | 249° |
| 2026-05-08 16:51 | 42.17780 | -106.52540 | 40024 ft | 466 kts | 249° |
| 2026-05-08 16:51 | 42.14749 | -106.60261 | 40024 ft | 466 kts | 249° |
| 2026-05-08 16:52 | 42.11712 | -106.67976 | 40016 ft | 466 kts | 249° |
| 2026-05-08 16:52 | 42.08672 | -106.75682 | 40016 ft | 466 kts | 249° |
| 2026-05-08 16:53 | 42.04101 | -106.87224 | 40023 ft | 466 kts | 249° |
| 2026-05-08 16:53 | 42.01046 | -106.94913 | 40067 ft | 466 kts | 249° |
| 2026-05-08 16:54 | 41.97982 | -107.02606 | 40092 ft | 467 kts | 249° |
| 2026-05-08 16:54 | 41.94916 | -107.10282 | 40121 ft | 466 kts | 249° |
| 2026-05-08 16:55 | 41.91847 | -107.17945 | 40138 ft | 466 kts | 248° |
| 2026-05-08 16:55 | 41.88773 | -107.25603 | 40165 ft | 466 kts | 248° |
| 2026-05-08 16:56 | 41.85695 | -107.33249 | 40155 ft | 466 kts | 248° |
| 2026-05-08 16:56 | 41.83134 | -107.39599 | 40134 ft | 466 kts | 248° |
| 2026-05-08 16:57 | 41.80052 | -107.47224 | 40095 ft | 465 kts | 248° |
| 2026-05-08 16:57 | 41.76868 | -107.54774 | 40063 ft | 469 kts | 242° |
| 2026-05-08 16:58 | 41.72652 | -107.61544 | 40035 ft | 479 kts | 230° |
| 2026-05-08 16:58 | 41.67558 | -107.67401 | 40005 ft | 484 kts | 225° |
| 2026-05-08 16:59 | 41.62351 | -107.73110 | 40001 ft | 484 kts | 225° |
| 2026-05-08 16:59 | 41.57167 | -107.78828 | 39993 ft | 482 kts | 225° |
| 2026-05-08 17:00 | 41.52019 | -107.84549 | 39997 ft | 481 kts | 226° |
| 2026-05-08 17:00 | 41.46889 | -107.90261 | 40002 ft | 480 kts | 226° |
| 2026-05-08 17:01 | 41.41758 | -107.95961 | 39998 ft | 480 kts | 226° |
| 2026-05-08 17:01 | 41.36626 | -108.01646 | 39993 ft | 480 kts | 225° |
| 2026-05-08 17:02 | 41.31524 | -108.07288 | 39998 ft | 480 kts | 225° |
| 2026-05-08 17:02 | 41.26347 | -108.12997 | 39997 ft | 480 kts | 225° |
| 2026-05-08 17:03 | 41.21201 | -108.18661 | 39995 ft | 481 kts | 225° |
| 2026-05-08 17:03 | 41.16082 | -108.24283 | 40000 ft | 481 kts | 225° |
| 2026-05-08 17:04 | 41.10928 | -108.29931 | 40008 ft | 480 kts | 225° |
| 2026-05-08 17:04 | 41.05771 | -108.35571 | 40008 ft | 481 kts | 225° |
| 2026-05-08 17:05 | 41.00609 | -108.41204 | 40007 ft | 481 kts | 225° |
| 2026-05-08 17:05 | 40.95450 | -108.46824 | 39983 ft | 480 kts | 225° |
| 2026-05-08 17:06 | 40.90286 | -108.52435 | 39988 ft | 480 kts | 225° |
| 2026-05-08 17:06 | 40.85125 | -108.58034 | 39979 ft | 481 kts | 225° |
| 2026-05-08 17:07 | 40.79950 | -108.63636 | 39987 ft | 481 kts | 225° |
| 2026-05-08 17:07 | 40.74769 | -108.69232 | 39983 ft | 482 kts | 225° |
| 2026-05-08 17:08 | 40.69577 | -108.74828 | 39983 ft | 482 kts | 225° |
| 2026-05-08 17:08 | 40.64384 | -108.80412 | 39969 ft | 482 kts | 225° |
| 2026-05-08 17:09 | 40.59196 | -108.85980 | 39979 ft | 481 kts | 225° |
| 2026-05-08 17:09 | 40.54000 | -108.91546 | 39976 ft | 481 kts | 225° |
| 2026-05-08 17:10 | 40.48807 | -108.97099 | 39980 ft | 482 kts | 225° |
| 2026-05-08 17:10 | 40.43605 | -109.02648 | 39981 ft | 482 kts | 225° |
| 2026-05-08 17:11 | 40.38393 | -109.08196 | 39998 ft | 482 kts | 225° |
| 2026-05-08 17:11 | 40.33224 | -109.13686 | 39989 ft | 481 kts | 224° |
| 2026-05-08 17:12 | 40.28034 | -109.19189 | 40008 ft | 479 kts | 224° |
| 2026-05-08 17:12 | 40.22855 | -109.24671 | 40004 ft | 479 kts | 224° |
| 2026-05-08 17:13 | 40.17673 | -109.30146 | 39989 ft | 478 kts | 224° |
| 2026-05-08 17:13 | 40.12497 | -109.35616 | 39961 ft | 477 kts | 226° |
| 2026-05-08 17:14 | 40.07592 | -109.41400 | 39961 ft | 475 kts | 228° |
| 2026-05-08 17:14 | 40.02752 | -109.47265 | 39935 ft | 475 kts | 228° |
| 2026-05-08 17:15 | 39.97905 | -109.53116 | 39940 ft | 475 kts | 228° |
| 2026-05-08 17:15 | 39.93042 | -109.58947 | 39950 ft | 475 kts | 228° |
| 2026-05-08 17:16 | 39.88166 | -109.64770 | 39941 ft | 476 kts | 228° |
| 2026-05-08 17:16 | 39.83280 | -109.70591 | 39933 ft | 476 kts | 227° |
| 2026-05-08 17:17 | 39.78395 | -109.76400 | 39945 ft | 476 kts | 227° |
| 2026-05-08 17:17 | 39.73504 | -109.82205 | 39942 ft | 476 kts | 227° |
| 2026-05-08 17:18 | 39.68610 | -109.88005 | 39953 ft | 476 kts | 227° |
| 2026-05-08 17:18 | 39.63714 | -109.93795 | 39953 ft | 476 kts | 227° |
| 2026-05-08 17:19 | 39.58809 | -109.99580 | 39938 ft | 477 kts | 227° |
| 2026-05-08 17:19 | 39.53902 | -110.05357 | 39940 ft | 476 kts | 227° |
| 2026-05-08 17:20 | 39.49003 | -110.11115 | 39938 ft | 475 kts | 227° |
| 2026-05-08 17:20 | 39.44105 | -110.16864 | 39938 ft | 475 kts | 227° |
| 2026-05-08 17:21 | 39.39200 | -110.22598 | 39943 ft | 476 kts | 227° |
| 2026-05-08 17:21 | 39.34318 | -110.28305 | 39936 ft | 476 kts | 227° |
| 2026-05-08 17:22 | 39.29404 | -110.34036 | 39930 ft | 476 kts | 227° |
| 2026-05-08 17:22 | 39.24488 | -110.39757 | 39934 ft | 476 kts | 227° |
| 2026-05-08 17:23 | 39.19569 | -110.45469 | 39932 ft | 476 kts | 227° |
| 2026-05-08 17:23 | 39.14651 | -110.51170 | 39927 ft | 475 kts | 227° |
| 2026-05-08 17:24 | 39.09734 | -110.56857 | 39929 ft | 475 kts | 227° |
| 2026-05-08 17:24 | 39.04820 | -110.62528 | 39947 ft | 474 kts | 227° |
| 2026-05-08 17:25 | 38.99905 | -110.68196 | 39934 ft | 475 kts | 227° |
| 2026-05-08 17:25 | 38.94977 | -110.73866 | 39933 ft | 476 kts | 227° |
| 2026-05-08 17:26 | 38.90041 | -110.79531 | 39943 ft | 476 kts | 227° |
| 2026-05-08 17:26 | 38.85101 | -110.85188 | 39936 ft | 476 kts | 226° |
| 2026-05-08 17:27 | 38.80156 | -110.90842 | 39935 ft | 476 kts | 226° |
| 2026-05-08 17:27 | 38.75211 | -110.96486 | 39936 ft | 476 kts | 226° |
| 2026-05-08 17:28 | 38.70298 | -111.02084 | 39934 ft | 476 kts | 226° |
| 2026-05-08 17:28 | 38.65347 | -111.07712 | 39942 ft | 476 kts | 226° |
| 2026-05-08 17:29 | 38.60395 | -111.13327 | 39933 ft | 475 kts | 226° |
| 2026-05-08 17:29 | 38.55453 | -111.18925 | 39955 ft | 474 kts | 226° |
| 2026-05-08 17:30 | 38.50509 | -111.24512 | 39959 ft | 474 kts | 226° |
| 2026-05-08 17:30 | 38.45563 | -111.30091 | 39969 ft | 475 kts | 226° |
| 2026-05-08 17:31 | 38.40610 | -111.35671 | 39981 ft | 475 kts | 226° |
| 2026-05-08 17:31 | 38.35648 | -111.41247 | 40011 ft | 476 kts | 226° |
| 2026-05-08 17:32 | 38.30669 | -111.46832 | 39995 ft | 477 kts | 226° |
| 2026-05-08 17:32 | 38.25689 | -111.52413 | 39999 ft | 477 kts | 226° |
| 2026-05-08 17:33 | 38.20700 | -111.57983 | 39999 ft | 478 kts | 226° |
| 2026-05-08 17:33 | 38.15708 | -111.63548 | 39999 ft | 477 kts | 226° |
| 2026-05-08 17:34 | 38.10719 | -111.69102 | 40001 ft | 477 kts | 226° |
| 2026-05-08 17:34 | 38.05765 | -111.74608 | 40000 ft | 476 kts | 226° |
| 2026-05-08 17:35 | 38.00778 | -111.80140 | 39986 ft | 476 kts | 226° |
| 2026-05-08 17:35 | 37.95792 | -111.85659 | 40009 ft | 475 kts | 226° |
| 2026-05-08 17:36 | 37.90816 | -111.91160 | 40064 ft | 475 kts | 225° |
| 2026-05-08 17:36 | 37.85836 | -111.96654 | 40145 ft | 475 kts | 225° |
| 2026-05-08 17:37 | 37.80999 | -112.02310 | 40204 ft | 471 kts | 231° |
| 2026-05-08 17:37 | 37.76548 | -112.08374 | 40254 ft | 471 kts | 232° |
| 2026-05-08 17:38 | 37.72109 | -112.14455 | 40257 ft | 471 kts | 231° |
| 2026-05-08 17:38 | 37.67651 | -112.20513 | 40260 ft | 471 kts | 231° |
| 2026-05-08 17:39 | 37.63178 | -112.26554 | 40207 ft | 471 kts | 230° |
| 2026-05-08 17:39 | 37.58702 | -112.32579 | 40153 ft | 470 kts | 230° |
| 2026-05-08 17:40 | 37.54229 | -112.38589 | 40089 ft | 470 kts | 230° |
| 2026-05-08 17:40 | 37.49752 | -112.44599 | 40025 ft | 471 kts | 230° |
| 2026-05-08 17:41 | 37.45261 | -112.50612 | 39973 ft | 471 kts | 230° |
| 2026-05-08 17:41 | 37.40775 | -112.56608 | 39977 ft | 471 kts | 230° |
| 2026-05-08 17:42 | 37.36289 | -112.62593 | 39988 ft | 470 kts | 230° |
| 2026-05-08 17:42 | 37.31799 | -112.68575 | 39964 ft | 470 kts | 230° |
| 2026-05-08 17:43 | 37.27307 | -112.74545 | 39975 ft | 470 kts | 230° |
| 2026-05-08 17:43 | 37.22811 | -112.80509 | 40002 ft | 470 kts | 230° |
| 2026-05-08 17:44 | 37.18311 | -112.86470 | 40042 ft | 471 kts | 230° |
| 2026-05-08 17:44 | 37.13807 | -112.92423 | 40076 ft | 471 kts | 230° |
| 2026-05-08 17:45 | 37.09293 | -112.98379 | 40125 ft | 472 kts | 230° |
| 2026-05-08 17:45 | 37.04770 | -113.04335 | 40148 ft | 471 kts | 229° |
| 2026-05-08 17:46 | 37.00286 | -113.10229 | 40152 ft | 470 kts | 229° |
| 2026-05-08 17:46 | 36.95776 | -113.16149 | 40138 ft | 470 kts | 229° |
| 2026-05-08 17:47 | 36.91265 | -113.22058 | 40091 ft | 470 kts | 229° |
| 2026-05-08 17:47 | 36.87480 | -113.27006 | 40054 ft | 470 kts | 229° |
| 2026-05-08 17:48 | 36.82963 | -113.32903 | 40010 ft | 470 kts | 229° |
| 2026-05-08 17:48 | 36.78443 | -113.38792 | 39951 ft | 470 kts | 229° |
| 2026-05-08 17:49 | 36.73919 | -113.44676 | 39955 ft | 470 kts | 229° |
| 2026-05-08 17:49 | 36.69428 | -113.50506 | 39937 ft | 469 kts | 229° |
| 2026-05-08 17:50 | 36.64908 | -113.56365 | 39937 ft | 469 kts | 229° |
| 2026-05-08 17:50 | 36.60384 | -113.62217 | 39931 ft | 469 kts | 229° |
| 2026-05-08 17:51 | 36.55855 | -113.68065 | 39927 ft | 469 kts | 229° |
| 2026-05-08 17:51 | 36.51325 | -113.73904 | 39925 ft | 469 kts | 229° |
| 2026-05-08 17:52 | 36.46791 | -113.79738 | 39916 ft | 469 kts | 228° |
| 2026-05-08 17:53 | 36.39989 | -113.88470 | 39908 ft | 469 kts | 228° |
| 2026-05-08 17:53 | 36.35448 | -113.94286 | 39892 ft | 469 kts | 228° |
| 2026-05-08 17:54 | 36.30913 | -114.00085 | 39900 ft | 469 kts | 228° |
| 2026-05-08 17:54 | 36.26371 | -114.05882 | 39880 ft | 469 kts | 228° |
| 2026-05-08 17:55 | 36.21825 | -114.11675 | 39869 ft | 469 kts | 228° |
| 2026-05-08 17:55 | 36.17278 | -114.17460 | 39861 ft | 469 kts | 228° |
| 2026-05-08 17:56 | 36.12725 | -114.23242 | 39867 ft | 469 kts | 228° |
| 2026-05-08 17:56 | 36.08172 | -114.29015 | 39862 ft | 468 kts | 228° |
| 2026-05-08 17:57 | 36.03787 | -114.34959 | 39862 ft | 468 kts | 231° |
| 2026-05-08 17:57 | 35.99511 | -114.41008 | 39848 ft | 467 kts | 231° |
| 2026-05-08 17:58 | 35.95217 | -114.47027 | 39865 ft | 467 kts | 230° |
| 2026-05-08 17:58 | 35.90900 | -114.53015 | 39884 ft | 467 kts | 230° |
| 2026-05-08 17:59 | 35.86573 | -114.58988 | 39899 ft | 467 kts | 230° |
| 2026-05-08 17:59 | 35.82244 | -114.64953 | 39902 ft | 467 kts | 230° |
| 2026-05-08 18:00 | 35.77914 | -114.70912 | 39889 ft | 467 kts | 230° |
| 2026-05-08 18:00 | 35.71409 | -114.79845 | 39936 ft | 467 kts | 230° |
| 2026-05-08 18:01 | 35.67073 | -114.85786 | 39931 ft | 467 kts | 230° |
| 2026-05-08 18:01 | 35.62729 | -114.91730 | 39931 ft | 467 kts | 230° |
| 2026-05-08 18:02 | 35.59121 | -114.96658 | 39928 ft | 467 kts | 230° |
| 2026-05-08 18:02 | 35.54039 | -115.03589 | 39937 ft | 467 kts | 230° |
| 2026-05-08 18:03 | 35.49685 | -115.09498 | 39945 ft | 467 kts | 229° |
| 2026-05-08 18:03 | 35.45243 | -115.15313 | 39952 ft | 467 kts | 228° |
| 2026-05-08 18:04 | 35.40777 | -115.21095 | 39956 ft | 467 kts | 228° |
| 2026-05-08 18:04 | 35.36346 | -115.26849 | 39976 ft | 467 kts | 229° |
| 2026-05-08 18:05 | 35.31855 | -115.32687 | 39973 ft | 468 kts | 229° |
| 2026-05-08 18:05 | 35.27393 | -115.38480 | 39977 ft | 468 kts | 229° |
| 2026-05-08 18:06 | 35.22925 | -115.44270 | 39987 ft | 468 kts | 229° |
| 2026-05-08 18:06 | 35.18455 | -115.50052 | 39980 ft | 468 kts | 228° |
| 2026-05-08 18:07 | 35.13984 | -115.55828 | 39994 ft | 468 kts | 228° |
| 2026-05-08 18:07 | 35.09534 | -115.61549 | 39986 ft | 467 kts | 228° |
| 2026-05-08 18:08 | 35.05043 | -115.67284 | 39983 ft | 467 kts | 228° |
| 2026-05-08 18:08 | 35.00548 | -115.73017 | 39990 ft | 468 kts | 228° |
| 2026-05-08 18:09 | 34.96047 | -115.78754 | 39985 ft | 468 kts | 228° |
| 2026-05-08 18:09 | 34.91542 | -115.84488 | 39971 ft | 469 kts | 228° |
| 2026-05-08 18:10 | 34.87027 | -115.90225 | 39957 ft | 469 kts | 228° |
| 2026-05-08 18:10 | 34.82509 | -115.95956 | 39950 ft | 469 kts | 228° |
| 2026-05-08 18:11 | 34.77988 | -116.01681 | 39947 ft | 469 kts | 228° |
| 2026-05-08 18:11 | 34.75728 | -116.04546 | 39830 ft | 471 kts | 228° |
| 2026-05-08 18:11 | 34.73446 | -116.07450 | 39155 ft | 477 kts | 228° |
| 2026-05-08 18:12 | 34.71183 | -116.10334 | 38499 ft | 469 kts | 228° |
| 2026-05-08 18:12 | 34.68935 | -116.13198 | 37749 ft | 469 kts | 228° |
| 2026-05-08 18:12 | 34.66684 | -116.16064 | 37009 ft | 468 kts | 228° |
| 2026-05-08 18:12 | 34.64433 | -116.18926 | 36282 ft | 468 kts | 228° |
| 2026-05-08 18:13 | 34.62179 | -116.21789 | 35573 ft | 468 kts | 228° |
| 2026-05-08 18:13 | 34.59937 | -116.24634 | 35017 ft | 465 kts | 227° |
| 2026-05-08 18:13 | 34.57705 | -116.27462 | 34462 ft | 462 kts | 227° |
| 2026-05-08 18:13 | 34.55488 | -116.30270 | 33922 ft | 460 kts | 227° |
| 2026-05-08 18:14 | 34.53283 | -116.33060 | 33317 ft | 457 kts | 227° |
| 2026-05-08 18:14 | 34.51091 | -116.35831 | 32756 ft | 454 kts | 227° |
| 2026-05-08 18:14 | 34.48914 | -116.38582 | 32210 ft | 450 kts | 227° |
| 2026-05-08 18:14 | 34.46754 | -116.41311 | 31678 ft | 447 kts | 227° |
| 2026-05-08 18:15 | 34.44606 | -116.44021 | 31147 ft | 444 kts | 227° |
| 2026-05-08 18:15 | 34.42475 | -116.46713 | 30624 ft | 441 kts | 229° |
| 2026-05-08 18:15 | 34.40641 | -116.49654 | 30085 ft | 436 kts | 243° |
| 2026-05-08 18:15 | 34.39327 | -116.52935 | 29497 ft | 431 kts | 247° |
| 2026-05-08 18:16 | 34.38089 | -116.56222 | 28888 ft | 427 kts | 246° |
| 2026-05-08 18:16 | 34.36828 | -116.59467 | 28312 ft | 423 kts | 245° |
| 2026-05-08 18:16 | 34.35540 | -116.62651 | 27756 ft | 420 kts | 245° |
| 2026-05-08 18:16 | 34.34239 | -116.65803 | 27194 ft | 417 kts | 244° |
| 2026-05-08 18:17 | 34.32946 | -116.68928 | 26642 ft | 414 kts | 245° |
| 2026-05-08 18:17 | 34.31682 | -116.72045 | 26094 ft | 412 kts | 245° |
| 2026-05-08 18:17 | 34.30435 | -116.75155 | 25578 ft | 410 kts | 245° |
| 2026-05-08 18:17 | 34.29195 | -116.78249 | 25055 ft | 408 kts | 245° |
| 2026-05-08 18:18 | 34.27962 | -116.81325 | 24507 ft | 406 kts | 245° |
| 2026-05-08 18:18 | 34.26727 | -116.84396 | 23960 ft | 405 kts | 245° |
| 2026-05-08 18:18 | 34.25493 | -116.87456 | 23409 ft | 404 kts | 245° |
| 2026-05-08 18:18 | 34.24269 | -116.90487 | 22821 ft | 398 kts | 245° |
| 2026-05-08 18:19 | 34.23063 | -116.93473 | 22278 ft | 394 kts | 245° |
| 2026-05-08 18:19 | 34.21862 | -116.96440 | 21755 ft | 392 kts | 245° |
| 2026-05-08 18:19 | 34.20723 | -116.99369 | 21261 ft | 389 kts | 250° |
| 2026-05-08 18:19 | 34.19821 | -117.02476 | 20750 ft | 386 kts | 255° |
| 2026-05-08 18:20 | 34.19060 | -117.05572 | 20257 ft | 383 kts | 255° |
| 2026-05-08 18:20 | 34.18296 | -117.08645 | 19760 ft | 382 kts | 254° |
| 2026-05-08 18:20 | 34.17495 | -117.11694 | 19313 ft | 380 kts | 254° |
| 2026-05-08 18:20 | 34.16684 | -117.14692 | 19108 ft | 383 kts | 253° |
| 2026-05-08 18:21 | 34.15849 | -117.17739 | 19022 ft | 379 kts | 252° |
| 2026-05-08 18:21 | 34.15024 | -117.20731 | 19001 ft | 374 kts | 252° |
| 2026-05-08 18:21 | 34.14208 | -117.23688 | 18518 ft | 369 kts | 253° |
| 2026-05-08 18:21 | 34.13403 | -117.26605 | 17622 ft | 364 kts | 253° |
| 2026-05-08 18:22 | 34.12607 | -117.29496 | 16634 ft | 362 kts | 252° |
| 2026-05-08 18:22 | 34.12070 | -117.31444 | 16001 ft | 364 kts | 253° |
| 2026-05-08 18:22 | 34.11007 | -117.35296 | 15284 ft | 364 kts | 252° |
| 2026-05-08 18:22 | 34.10215 | -117.38193 | 14783 ft | 362 kts | 253° |
| 2026-05-08 18:23 | 34.09492 | -117.41069 | 14305 ft | 351 kts | 255° |
| 2026-05-08 18:23 | 34.08804 | -117.43879 | 13837 ft | 350 kts | 254° |
| 2026-05-08 18:23 | 34.08106 | -117.46699 | 13289 ft | 351 kts | 253° |
| 2026-05-08 18:23 | 34.07414 | -117.49469 | 13113 ft | 339 kts | 253° |
| 2026-05-08 18:24 | 34.06613 | -117.52171 | 12659 ft | 337 kts | 247° |
| 2026-05-08 18:24 | 34.05679 | -117.54708 | 12225 ft | 335 kts | 245° |
| 2026-05-08 18:24 | 34.04710 | -117.57250 | 11779 ft | 333 kts | 245° |
| 2026-05-08 18:24 | 34.03759 | -117.59791 | 11335 ft | 331 kts | 245° |
| 2026-05-08 18:25 | 34.02832 | -117.62326 | 10888 ft | 329 kts | 245° |
| 2026-05-08 18:25 | 34.01937 | -117.64803 | 10465 ft | 316 kts | 245° |
| 2026-05-08 18:25 | 34.01085 | -117.67165 | 10318 ft | 298 kts | 245° |
| 2026-05-08 18:25 | 34.00457 | -117.69474 | 10169 ft | 284 kts | 259° |
| 2026-05-08 18:26 | 34.00217 | -117.71834 | 10074 ft | 286 kts | 263° |
| 2026-05-08 18:26 | 34.00029 | -117.74252 | 9766 ft | 294 kts | 263° |
| 2026-05-08 18:26 | 33.99835 | -117.76684 | 9402 ft | 286 kts | 263° |
| 2026-05-08 18:26 | 33.99626 | -117.79036 | 9066 ft | 282 kts | 263° |
| 2026-05-08 18:27 | 33.99404 | -117.81377 | 8736 ft | 280 kts | 263° |
| 2026-05-08 18:27 | 33.99256 | -117.82916 | 8519 ft | 279 kts | 263° |
| 2026-05-08 18:27 | 33.98957 | -117.86020 | 8078 ft | 278 kts | 263° |
| 2026-05-08 18:27 | 33.98733 | -117.88331 | 7755 ft | 277 kts | 264° |
| 2026-05-08 18:28 | 33.98555 | -117.90637 | 7413 ft | 276 kts | 265° |
| 2026-05-08 18:28 | 33.98374 | -117.92928 | 7081 ft | 270 kts | 265° |
| 2026-05-08 18:28 | 33.98164 | -117.95160 | 6769 ft | 268 kts | 264° |
| 2026-05-08 18:28 | 33.97941 | -117.97386 | 6456 ft | 267 kts | 264° |
| 2026-05-08 18:29 | 33.97714 | -117.99602 | 6111 ft | 263 kts | 264° |
| 2026-05-08 18:29 | 33.97491 | -118.01765 | 5811 ft | 260 kts | 263° |
| 2026-05-08 18:29 | 33.97268 | -118.03929 | 5498 ft | 261 kts | 264° |
| 2026-05-08 18:29 | 33.97047 | -118.06085 | 5203 ft | 260 kts | 264° |
| 2026-05-08 18:30 | 33.96823 | -118.08258 | 4861 ft | 261 kts | 264° |
| 2026-05-08 18:30 | 33.96601 | -118.10423 | 4558 ft | 259 kts | 265° |
| 2026-05-08 18:30 | 33.96383 | -118.12547 | 4180 ft | 252 kts | 264° |
| 2026-05-08 18:30 | 33.96171 | -118.14600 | 3848 ft | 242 kts | 265° |
| 2026-05-08 18:31 | 33.95967 | -118.16579 | 3518 ft | 234 kts | 264° |
| 2026-05-08 18:31 | 33.95771 | -118.18488 | 3223 ft | 225 kts | 264° |
| 2026-05-08 18:31 | 33.95583 | -118.20314 | 2938 ft | 215 kts | 265° |
| 2026-05-08 18:31 | 33.95405 | -118.22060 | 2697 ft | 205 kts | 264° |
| 2026-05-08 18:32 | 33.95291 | -118.23170 | 2556 ft | 199 kts | 264° |
| 2026-05-08 18:32 | 33.95125 | -118.24788 | 2301 ft | 188 kts | 263° |
| 2026-05-08 18:32 | 33.94971 | -118.26283 | 2083 ft | 172 kts | 263° |
| 2026-05-08 18:32 | 33.94831 | -118.27654 | 1839 ft | 158 kts | 262° |
| 2026-05-08 18:33 | 33.94704 | -118.28885 | 1655 ft | 142 kts | 262° |
| 2026-05-08 18:33 | 33.94588 | -118.30014 | 1492 ft | 130 kts | 262° |
| 2026-05-08 18:33 | 33.94476 | -118.31096 | 1321 ft | 131 kts | 262° |
| 2026-05-08 18:33 | 33.94362 | -118.32206 | 1137 ft | 133 kts | 262° |
| 2026-05-08 18:34 | 33.94248 | -118.33312 | 952 ft | 133 kts | 262° |
| 2026-05-08 18:34 | 33.94134 | -118.34421 | 766 ft | 134 kts | 263° |
| 2026-05-08 18:34 | 33.94020 | -118.35533 | 585 ft | 134 kts | 263° |
| 2026-05-08 18:34 | 33.93904 | -118.36643 | 404 ft | 134 kts | 262° |
| 2026-05-08 18:35 | 33.93791 | -118.37743 | 249 ft | 131 kts | 262° |
| 2026-05-08 18:35 | 33.93680 | -118.38827 | 109 ft | 130 kts | 264° |
| 2026-05-08 18:35 | 33.93582 | -118.39785 | 101 ft | 97 kts | 263° |
| 2026-05-08 18:35 | 33.93518 | -118.40408 | 99 ft | 53 kts | 263° |
| 2026-05-08 18:36 | 33.93489 | -118.40688 | 98 ft | 12 kts | 265° |
| 2026-05-08 18:36 | 33.93544 | -118.40735 | 99 ft | 8 kts | 353° |
| 2026-05-08 18:36 | 33.93585 | -118.40777 | 100 ft | 8 kts | 294° |
| 2026-05-08 18:36 | 33.93596 | -118.40813 | 101 ft | 0 kts | 291° |
| 2026-05-08 18:37 | 33.93608 | -118.40848 | 100 ft | 6 kts | 291° |
| 2026-05-08 18:38 | 33.93634 | -118.40887 | 100 ft | 6 kts | 339° |
| 2026-05-08 18:38 | 33.93689 | -118.40899 | 100 ft | 11 kts | 351° |
| 2026-05-08 18:38 | 33.93733 | -118.40906 | 100 ft | 0 kts | 353° |
| 2026-05-08 18:40 | 33.93768 | -118.40912 | 99 ft | 9 kts | 353° |
| 2026-05-08 18:40 | 33.93831 | -118.40921 | 99 ft | 9 kts | 353° |
| 2026-05-08 18:41 | 33.93869 | -118.40886 | 99 ft | 10 kts | 76° |
| 2026-05-08 18:41 | 33.93903 | -118.40811 | 99 ft | 11 kts | 6° |
| 2026-05-08 18:41 | 33.93990 | -118.40821 | 99 ft | 14 kts | 353° |
| 2026-05-08 18:41 | 33.94069 | -118.40832 | 98 ft | 9 kts | 2° |
| 2026-05-08 18:42 | 33.94092 | -118.40791 | 98 ft | 6 kts | 69° |
| 2026-05-08 18:42 | 33.94103 | -118.40752 | 98 ft | 3 kts | 71° |
| 2026-05-08 18:42 | 33.94107 | -118.40740 | 98 ft | 0 kts | 70° |